sensor_id;sensor_type;location;lat;lon;timestamp;temperature;humidity
54796;DHT22;40693;43.884;20.340;2023-12-28T00:00:09;153.80;2252.80
54796;DHT22;40693;43.884;20.340;2023-12-28T00:02:34;153.80;2252.80
54796;DHT22;40693;43.884;20.340;2023-12-28T00:05:00;153.80;2252.80
54796;DHT22;40693;43.884;20.340;2023-12-28T00:07:26;153.80;2252.80
54796;DHT22;40693;43.884;20.340;2023-12-28T00:09:52;153.80;2252.80
54796;DHT22;40693;43.884;20.340;2023-12-28T00:12:17;153.80;2252.80
54796;DHT22;40693;43.884;20.340;2023-12-28T00:14:43;153.80;2252.80
54796;DHT22;40693;43.884;20.340;2023-12-28T00:17:09;153.80;2252.80
54796;DHT22;40693;43.884;20.340;2023-12-28T00:19:35;153.80;2252.80
54796;DHT22;40693;43.884;20.340;2023-12-28T00:22:00;153.80;2252.80
54796;DHT22;40693;43.884;20.340;2023-12-28T00:24:26;153.80;2252.80
54796;DHT22;40693;43.884;20.340;2023-12-28T00:26:52;153.80;2252.80
54796;DHT22;40693;43.884;20.340;2023-12-28T00:29:17;153.70;2252.80
54796;DHT22;40693;43.884;20.340;2023-12-28T00:31:43;153.70;2252.80
54796;DHT22;40693;43.884;20.340;2023-12-28T00:34:09;153.70;2252.80
54796;DHT22;40693;43.884;20.340;2023-12-28T00:36:35;153.70;2252.80
54796;DHT22;40693;43.884;20.340;2023-12-28T00:39:00;153.70;2252.80
54796;DHT22;40693;43.884;20.340;2023-12-28T00:41:26;153.70;2252.80
54796;DHT22;40693;43.884;20.340;2023-12-28T00:43:52;153.70;2252.80
54796;DHT22;40693;43.884;20.340;2023-12-28T00:46:18;153.70;2252.80
54796;DHT22;40693;43.884;20.340;2023-12-28T00:48:43;153.70;2252.80
54796;DHT22;40693;43.884;20.340;2023-12-28T00:51:09;153.60;2252.80
54796;DHT22;40693;43.884;20.340;2023-12-28T00:53:35;153.60;2252.80
54796;DHT22;40693;43.884;20.340;2023-12-28T00:56:01;128.90;2252.80
54796;DHT22;40693;43.884;20.340;2023-12-28T00:58:26;128.90;2252.80
54796;DHT22;40693;43.884;20.340;2023-12-28T01:00:52;128.90;2252.80
54796;DHT22;40693;43.884;20.340;2023-12-28T01:03:21;128.90;2252.80
54796;DHT22;40693;43.884;20.340;2023-12-28T01:05:47;128.90;2252.80
54796;DHT22;40693;43.884;20.340;2023-12-28T01:08:16;128.90;2252.80
54796;DHT22;40693;43.884;20.340;2023-12-28T01:10:43;128.90;2252.80
54796;DHT22;40693;43.884;20.340;2023-12-28T01:13:08;128.80;2252.80
54796;DHT22;40693;43.884;20.340;2023-12-28T01:15:34;128.70;2252.80
54796;DHT22;40693;43.884;20.340;2023-12-28T01:18:00;128.70;2252.80
54796;DHT22;40693;43.884;20.340;2023-12-28T01:20:26;128.70;2252.80
54796;DHT22;40693;43.884;20.340;2023-12-28T01:22:51;128.70;2252.80
54796;DHT22;40693;43.884;20.340;2023-12-28T01:25:17;128.80;2252.80
54796;DHT22;40693;43.884;20.340;2023-12-28T01:27:43;128.70;2252.80
54796;DHT22;40693;43.884;20.340;2023-12-28T01:30:09;128.70;2252.80
54796;DHT22;40693;43.884;20.340;2023-12-28T01:32:35;128.70;2252.80
54796;DHT22;40693;43.884;20.340;2023-12-28T01:35:01;128.70;2252.80
54796;DHT22;40693;43.884;20.340;2023-12-28T01:37:27;128.60;2252.80
54796;DHT22;40693;43.884;20.340;2023-12-28T01:39:56;128.50;2252.80
54796;DHT22;40693;43.884;20.340;2023-12-28T01:42:22;128.50;2252.80
54796;DHT22;40693;43.884;20.340;2023-12-28T01:44:47;128.50;2252.80
54796;DHT22;40693;43.884;20.340;2023-12-28T01:47:13;128.50;2252.80
54796;DHT22;40693;43.884;20.340;2023-12-28T01:49:39;128.50;2252.80
54796;DHT22;40693;43.884;20.340;2023-12-28T01:52:06;128.50;2252.80
54796;DHT22;40693;43.884;20.340;2023-12-28T01:54:32;128.50;2252.80
54796;DHT22;40693;43.884;20.340;2023-12-28T01:56:59;128.50;2252.80
54796;DHT22;40693;43.884;20.340;2023-12-28T01:59:26;128.50;2252.80
54796;DHT22;40693;43.884;20.340;2023-12-28T02:01:51;128.50;2252.80
54796;DHT22;40693;43.884;20.340;2023-12-28T02:04:17;128.40;2252.80
54796;DHT22;40693;43.884;20.340;2023-12-28T02:06:47;128.40;2252.80
54796;DHT22;40693;43.884;20.340;2023-12-28T02:09:14;128.40;2252.80
54796;DHT22;40693;43.884;20.340;2023-12-28T02:11:40;128.30;2252.80
54796;DHT22;40693;43.884;20.340;2023-12-28T02:14:05;128.30;2252.80
54796;DHT22;40693;43.884;20.340;2023-12-28T02:16:39;128.30;2252.80
54796;DHT22;40693;43.884;20.340;2023-12-28T02:21:47;128.30;2252.80
54796;DHT22;40693;43.884;20.340;2023-12-28T02:24:14;128.30;2252.80
54796;DHT22;40693;43.884;20.340;2023-12-28T02:26:39;128.30;2252.80
54796;DHT22;40693;43.884;20.340;2023-12-28T02:29:05;128.20;2252.80
54796;DHT22;40693;43.884;20.340;2023-12-28T02:31:39;128.20;2252.80
54796;DHT22;40693;43.884;20.340;2023-12-28T02:34:11;128.20;2252.80
54796;DHT22;40693;43.884;20.340;2023-12-28T02:36:41;128.20;2252.80
54796;DHT22;40693;43.884;20.340;2023-12-28T02:39:11;128.00;2252.80
54796;DHT22;40693;43.884;20.340;2023-12-28T02:41:37;128.30;2252.80
54796;DHT22;40693;43.884;20.340;2023-12-28T02:44:03;128.20;2252.80
54796;DHT22;40693;43.884;20.340;2023-12-28T02:46:29;128.20;2252.80
54796;DHT22;40693;43.884;20.340;2023-12-28T02:48:55;128.20;2252.80
54796;DHT22;40693;43.884;20.340;2023-12-28T02:51:22;128.10;2252.80
54796;DHT22;40693;43.884;20.340;2023-12-28T02:53:48;128.00;2252.80
54796;DHT22;40693;43.884;20.340;2023-12-28T02:56:14;128.10;2252.80
54796;DHT22;40693;43.884;20.340;2023-12-28T02:58:40;128.00;2252.80
54796;DHT22;40693;43.884;20.340;2023-12-28T03:01:05;128.00;2252.80
54796;DHT22;40693;43.884;20.340;2023-12-28T03:03:31;128.00;2252.80
54796;DHT22;40693;43.884;20.340;2023-12-28T03:05:57;128.00;2252.80
54796;DHT22;40693;43.884;20.340;2023-12-28T03:08:22;128.00;2252.80
54796;DHT22;40693;43.884;20.340;2023-12-28T03:10:48;128.00;2252.80
54796;DHT22;40693;43.884;20.340;2023-12-28T03:13:14;128.00;2252.80
54796;DHT22;40693;43.884;20.340;2023-12-28T03:15:40;128.00;2252.80
54796;DHT22;40693;43.884;20.340;2023-12-28T03:18:06;128.00;2252.80
54796;DHT22;40693;43.884;20.340;2023-12-28T03:20:31;103.30;2227.20
54796;DHT22;40693;43.884;20.340;2023-12-28T03:22:57;103.30;2227.20
54796;DHT22;40693;43.884;20.340;2023-12-28T03:25:23;103.20;2227.20
54796;DHT22;40693;43.884;20.340;2023-12-28T03:27:49;103.30;2227.20
54796;DHT22;40693;43.884;20.340;2023-12-28T03:30:14;103.20;2227.20
54796;DHT22;40693;43.884;20.340;2023-12-28T03:32:40;103.20;2227.20
54796;DHT22;40693;43.884;20.340;2023-12-28T03:35:06;103.20;2227.20
54796;DHT22;40693;43.884;20.340;2023-12-28T03:37:33;103.20;2227.20
54796;DHT22;40693;43.884;20.340;2023-12-28T03:39:58;103.20;2227.20
54796;DHT22;40693;43.884;20.340;2023-12-28T03:42:24;103.20;2227.20
54796;DHT22;40693;43.884;20.340;2023-12-28T03:44:50;103.20;2227.20
54796;DHT22;40693;43.884;20.340;2023-12-28T03:47:16;103.20;2227.20
54796;DHT22;40693;43.884;20.340;2023-12-28T03:49:41;103.10;2227.20
54796;DHT22;40693;43.884;20.340;2023-12-28T03:52:07;103.10;2227.20
54796;DHT22;40693;43.884;20.340;2023-12-28T03:54:33;103.10;2227.20
54796;DHT22;40693;43.884;20.340;2023-12-28T03:56:59;103.10;2227.20
54796;DHT22;40693;43.884;20.340;2023-12-28T03:59:24;103.30;2227.20
54796;DHT22;40693;43.884;20.340;2023-12-28T04:01:50;103.10;2227.20
54796;DHT22;40693;43.884;20.340;2023-12-28T04:04:16;103.00;2227.20
54796;DHT22;40693;43.884;20.340;2023-12-28T04:06:42;103.00;2227.20
54796;DHT22;40693;43.884;20.340;2023-12-28T04:09:11;102.90;2227.20
54796;DHT22;40693;43.884;20.340;2023-12-28T04:11:37;102.90;2227.20
54796;DHT22;40693;43.884;20.340;2023-12-28T04:14:03;102.90;2227.20
54796;DHT22;40693;43.884;20.340;2023-12-28T04:16:29;102.90;2227.20
54796;DHT22;40693;43.884;20.340;2023-12-28T04:18:55;102.90;2227.20
54796;DHT22;40693;43.884;20.340;2023-12-28T04:21:20;102.90;2227.20
54796;DHT22;40693;43.884;20.340;2023-12-28T04:23:47;102.90;2227.20
54796;DHT22;40693;43.884;20.340;2023-12-28T04:26:13;102.90;2227.20
54796;DHT22;40693;43.884;20.340;2023-12-28T04:28:39;102.90;2227.20
54796;DHT22;40693;43.884;20.340;2023-12-28T04:31:06;102.70;2227.20
54796;DHT22;40693;43.884;20.340;2023-12-28T04:33:32;102.90;2227.20
54796;DHT22;40693;43.884;20.340;2023-12-28T04:36:01;102.90;2227.20
54796;DHT22;40693;43.884;20.340;2023-12-28T04:38:29;103.00;2227.20
54796;DHT22;40693;43.884;20.340;2023-12-28T04:40:54;102.80;2227.20
54796;DHT22;40693;43.884;20.340;2023-12-28T04:43:20;102.90;2227.20
54796;DHT22;40693;43.884;20.340;2023-12-28T04:45:46;102.90;2227.20
54796;DHT22;40693;43.884;20.340;2023-12-28T04:48:12;102.80;2227.20
54796;DHT22;40693;43.884;20.340;2023-12-28T04:50:38;102.80;2227.20
54796;DHT22;40693;43.884;20.340;2023-12-28T04:53:03;102.80;2227.20
54796;DHT22;40693;43.884;20.340;2023-12-28T04:55:29;102.80;2227.20
54796;DHT22;40693;43.884;20.340;2023-12-28T04:57:55;102.80;2227.20
54796;DHT22;40693;43.884;20.340;2023-12-28T05:00:21;102.80;2227.20
54796;DHT22;40693;43.884;20.340;2023-12-28T05:02:46;102.80;2227.20
54796;DHT22;40693;43.884;20.340;2023-12-28T05:05:12;102.70;2227.20
54796;DHT22;40693;43.884;20.340;2023-12-28T05:07:38;102.70;2227.20
54796;DHT22;40693;43.884;20.340;2023-12-28T05:10:04;102.70;2227.20
54796;DHT22;40693;43.884;20.340;2023-12-28T05:12:31;102.70;2227.20
54796;DHT22;40693;43.884;20.340;2023-12-28T05:14:57;102.70;2227.20
54796;DHT22;40693;43.884;20.340;2023-12-28T05:17:22;102.70;2227.20
54796;DHT22;40693;43.884;20.340;2023-12-28T05:19:48;102.70;2227.20
54796;DHT22;40693;43.884;20.340;2023-12-28T05:22:14;102.70;2227.20
54796;DHT22;40693;43.884;20.340;2023-12-28T05:24:40;102.70;2227.20
54796;DHT22;40693;43.884;20.340;2023-12-28T05:27:06;102.70;2227.20
54796;DHT22;40693;43.884;20.340;2023-12-28T05:29:31;102.70;2227.20
54796;DHT22;40693;43.884;20.340;2023-12-28T05:31:57;102.60;2227.20
54796;DHT22;40693;43.884;20.340;2023-12-28T05:34:23;102.60;2227.20
54796;DHT22;40693;43.884;20.340;2023-12-28T05:36:48;102.60;2227.20
54796;DHT22;40693;43.884;20.340;2023-12-28T05:39:15;102.50;2227.20
54796;DHT22;40693;43.884;20.340;2023-12-28T05:41:40;102.50;2227.20
54796;DHT22;40693;43.884;20.340;2023-12-28T05:44:06;102.50;2227.20
54796;DHT22;40693;43.884;20.340;2023-12-28T05:46:32;102.50;2227.20
54796;DHT22;40693;43.884;20.340;2023-12-28T05:48:58;102.40;2227.20
54796;DHT22;40693;43.884;20.340;2023-12-28T05:51:24;102.50;2227.20
54796;DHT22;40693;43.884;20.340;2023-12-28T05:53:49;102.50;2227.20
54796;DHT22;40693;43.884;20.340;2023-12-28T05:56:15;102.40;2227.20
54796;DHT22;40693;43.884;20.340;2023-12-28T05:58:41;102.50;2227.20
54796;DHT22;40693;43.884;20.340;2023-12-28T06:01:07;102.40;2227.20
54796;DHT22;40693;43.884;20.340;2023-12-28T06:03:32;102.40;2227.20
54796;DHT22;40693;43.884;20.340;2023-12-28T06:05:58;102.40;2227.20
54796;DHT22;40693;43.884;20.340;2023-12-28T06:08:24;102.40;2227.20
54796;DHT22;40693;43.884;20.340;2023-12-28T06:10:50;77.70;2227.20
54796;DHT22;40693;43.884;20.340;2023-12-28T06:13:15;77.70;2227.20
54796;DHT22;40693;43.884;20.340;2023-12-28T06:15:41;77.70;2227.20
54796;DHT22;40693;43.884;20.340;2023-12-28T06:18:07;77.60;2227.20
54796;DHT22;40693;43.884;20.340;2023-12-28T06:20:33;77.60;2227.20
54796;DHT22;40693;43.884;20.340;2023-12-28T06:22:59;77.60;2227.20
54796;DHT22;40693;43.884;20.340;2023-12-28T06:25:24;77.60;2227.20
54796;DHT22;40693;43.884;20.340;2023-12-28T06:27:50;77.60;2227.20
54796;DHT22;40693;43.884;20.340;2023-12-28T06:30:16;77.60;2227.20
54796;DHT22;40693;43.884;20.340;2023-12-28T06:32:42;77.60;2227.20
54796;DHT22;40693;43.884;20.340;2023-12-28T06:35:08;77.30;2227.20
54796;DHT22;40693;43.884;20.340;2023-12-28T06:37:34;77.60;2227.20
54796;DHT22;40693;43.884;20.340;2023-12-28T06:40:00;77.60;2227.20
54796;DHT22;40693;43.884;20.340;2023-12-28T06:42:25;77.60;2227.20
54796;DHT22;40693;43.884;20.340;2023-12-28T06:44:51;77.60;2227.20
54796;DHT22;40693;43.884;20.340;2023-12-28T06:47:17;77.60;2227.20
54796;DHT22;40693;43.884;20.340;2023-12-28T06:49:43;77.70;2227.20
54796;DHT22;40693;43.884;20.340;2023-12-28T06:52:09;77.70;2227.20
54796;DHT22;40693;43.884;20.340;2023-12-28T06:54:35;77.70;2227.20
54796;DHT22;40693;43.884;20.340;2023-12-28T06:57:00;102.40;2227.20
54796;DHT22;40693;43.884;20.340;2023-12-28T06:59:26;102.40;2227.20
54796;DHT22;40693;43.884;20.340;2023-12-28T07:01:52;102.50;2227.20
54796;DHT22;40693;43.884;20.340;2023-12-28T07:04:18;102.50;2227.20
54796;DHT22;40693;43.884;20.340;2023-12-28T07:06:43;102.60;2227.20
54796;DHT22;40693;43.884;20.340;2023-12-28T07:09:09;102.70;2227.20
54796;DHT22;40693;43.884;20.340;2023-12-28T07:11:35;102.70;2227.20
54796;DHT22;40693;43.884;20.340;2023-12-28T07:14:01;102.80;2227.20
54796;DHT22;40693;43.884;20.340;2023-12-28T07:16:27;102.80;2227.20
54796;DHT22;40693;43.884;20.340;2023-12-28T07:18:53;102.80;2227.20
54796;DHT22;40693;43.884;20.340;2023-12-28T07:21:19;102.90;2227.20
54796;DHT22;40693;43.884;20.340;2023-12-28T07:23:45;103.00;2227.20
54796;DHT22;40693;43.884;20.340;2023-12-28T07:26:15;103.20;2227.20
54796;DHT22;40693;43.884;20.340;2023-12-28T07:28:41;103.30;2227.20
54796;DHT22;40693;43.884;20.340;2023-12-28T07:31:09;128.00;2252.80
54796;DHT22;40693;43.884;20.340;2023-12-28T07:33:35;128.10;2252.80
54796;DHT22;40693;43.884;20.340;2023-12-28T07:36:00;128.20;2252.80
54796;DHT22;40693;43.884;20.340;2023-12-28T07:38:28;128.40;2252.80
54796;DHT22;40693;43.884;20.340;2023-12-28T07:40:54;128.50;2252.80
54796;DHT22;40693;43.884;20.340;2023-12-28T07:43:20;128.70;2252.80
54796;DHT22;40693;43.884;20.340;2023-12-28T07:45:45;128.70;2252.80
54796;DHT22;40693;43.884;20.340;2023-12-28T07:48:11;128.80;2252.80
54796;DHT22;40693;43.884;20.340;2023-12-28T07:50:37;128.90;2252.80
54796;DHT22;40693;43.884;20.340;2023-12-28T07:53:03;153.60;2252.80
54796;DHT22;40693;43.884;20.340;2023-12-28T07:55:29;153.80;2252.80
54796;DHT22;40693;43.884;20.340;2023-12-28T07:57:54;154.00;2252.80
54796;DHT22;40693;43.884;20.340;2023-12-28T08:00:20;154.10;2252.80
54796;DHT22;40693;43.884;20.340;2023-12-28T08:02:46;154.30;2252.80
54796;DHT22;40693;43.884;20.340;2023-12-28T08:05:12;154.50;2252.80
54796;DHT22;40693;43.884;20.340;2023-12-28T08:07:37;179.20;2252.80
54796;DHT22;40693;43.884;20.340;2023-12-28T08:10:03;179.40;2252.80
54796;DHT22;40693;43.884;20.340;2023-12-28T08:12:29;179.60;2252.80
54796;DHT22;40693;43.884;20.340;2023-12-28T08:14:55;179.70;2252.80
54796;DHT22;40693;43.884;20.340;2023-12-28T08:17:21;179.90;2252.80
54796;DHT22;40693;43.884;20.340;2023-12-28T08:19:47;180.10;2252.80
54796;DHT22;40693;43.884;20.340;2023-12-28T08:22:13;204.80;2252.80
54796;DHT22;40693;43.884;20.340;2023-12-28T08:24:38;205.00;2252.80
54796;DHT22;40693;43.884;20.340;2023-12-28T08:27:04;205.10;2252.80
54796;DHT22;40693;43.884;20.340;2023-12-28T08:29:31;205.30;2252.80
54796;DHT22;40693;43.884;20.340;2023-12-28T08:31:57;205.50;2252.80
54796;DHT22;40693;43.884;20.340;2023-12-28T08:34:23;205.60;2252.80
54796;DHT22;40693;43.884;20.340;2023-12-28T08:36:49;230.50;2252.80
54796;DHT22;40693;43.884;20.340;2023-12-28T08:39:15;230.70;2252.80
54796;DHT22;40693;43.884;20.340;2023-12-28T08:41:40;230.90;2252.80
54796;DHT22;40693;43.884;20.340;2023-12-28T08:44:06;231.10;2252.80
54796;DHT22;40693;43.884;20.340;2023-12-28T08:46:32;231.20;2252.80
54796;DHT22;40693;43.884;20.340;2023-12-28T08:49:05;256.10;2252.80
54796;DHT22;40693;43.884;20.340;2023-12-28T08:51:31;256.30;2252.80
54796;DHT22;40693;43.884;20.340;2023-12-28T08:53:57;256.70;2252.80
54796;DHT22;40693;43.884;20.340;2023-12-28T08:56:22;281.70;2278.40
54796;DHT22;40693;43.884;20.340;2023-12-28T08:58:49;282.30;2278.40
54796;DHT22;40693;43.884;20.340;2023-12-28T09:01:23;308.10;2304.00
54796;DHT22;40693;43.884;20.340;2023-12-28T09:03:53;333.10;2227.20
54796;DHT22;40693;43.884;20.340;2023-12-28T09:06:20;358.60;2099.20
54796;DHT22;40693;43.884;20.340;2023-12-28T09:08:48;384.10;2048.00
54796;DHT22;40693;43.884;20.340;2023-12-28T09:11:14;410.00;1996.80
54796;DHT22;40693;43.884;20.340;2023-12-28T09:13:40;435.50;1868.80
54796;DHT22;40693;43.884;20.340;2023-12-28T09:16:12;461.00;1792.00
54796;DHT22;40693;43.884;20.340;2023-12-28T09:18:39;486.40;1715.20
54796;DHT22;40693;43.884;20.340;2023-12-28T09:21:06;487.30;1638.40
54796;DHT22;40693;43.884;20.340;2023-12-28T09:23:33;512.50;1536.00
54796;DHT22;40693;43.884;20.340;2023-12-28T09:26:02;538.00;1510.40
54796;DHT22;40693;43.884;20.340;2023-12-28T09:28:32;538.30;1459.20
54796;DHT22;40693;43.884;20.340;2023-12-28T09:30:59;538.50;1408.00
54796;DHT22;40693;43.884;20.340;2023-12-28T09:33:25;563.40;1433.60
54796;DHT22;40693;43.884;20.340;2023-12-28T09:35:51;563.60;1459.20
54796;DHT22;40693;43.884;20.340;2023-12-28T09:38:19;564.10;1433.60
54796;DHT22;40693;43.884;20.340;2023-12-28T09:40:45;589.20;1356.80
54796;DHT22;40693;43.884;20.340;2023-12-28T09:43:24;614.50;1331.20
54796;DHT22;40693;43.884;20.340;2023-12-28T09:45:51;615.00;1280.00
54796;DHT22;40693;43.884;20.340;2023-12-28T09:48:18;640.00;1254.40
54796;DHT22;40693;43.884;20.340;2023-12-28T09:50:45;640.40;1228.80
54796;DHT22;40693;43.884;20.340;2023-12-28T09:53:12;640.70;1203.20
54796;DHT22;40693;43.884;20.340;2023-12-28T09:55:38;665.70;1203.20
54796;DHT22;40693;43.884;20.340;2023-12-28T09:58:04;666.20;1177.60
54796;DHT22;40693;43.884;20.340;2023-12-28T10:00:31;666.10;1177.60
54796;DHT22;40693;43.884;20.340;2023-12-28T10:02:57;691.20;1203.20
54796;DHT22;40693;43.884;20.340;2023-12-28T10:05:23;691.30;1177.60
54796;DHT22;40693;43.884;20.340;2023-12-28T10:07:50;691.30;1177.60
54796;DHT22;40693;43.884;20.340;2023-12-28T10:10:16;666.50;1177.60
54796;DHT22;40693;43.884;20.340;2023-12-28T10:12:42;666.40;1203.20
54796;DHT22;40693;43.884;20.340;2023-12-28T10:15:09;666.30;1152.00
54796;DHT22;40693;43.884;20.340;2023-12-28T10:17:35;666.40;1228.80
54796;DHT22;40693;43.884;20.340;2023-12-28T10:20:04;666.40;1177.60
54796;DHT22;40693;43.884;20.340;2023-12-28T10:22:34;666.40;1152.00
54796;DHT22;40693;43.884;20.340;2023-12-28T10:25:02;666.30;1152.00
54796;DHT22;40693;43.884;20.340;2023-12-28T10:27:28;666.20;1152.00
54796;DHT22;40693;43.884;20.340;2023-12-28T10:29:55;666.20;1152.00
54796;DHT22;40693;43.884;20.340;2023-12-28T10:32:24;666.10;1152.00
54796;DHT22;40693;43.884;20.340;2023-12-28T10:34:53;665.80;1203.20
54796;DHT22;40693;43.884;20.340;2023-12-28T10:37:20;665.70;1203.20
54796;DHT22;40693;43.884;20.340;2023-12-28T10:39:48;640.80;1228.80
54796;DHT22;40693;43.884;20.340;2023-12-28T10:42:25;640.60;1203.20
54796;DHT22;40693;43.884;20.340;2023-12-28T10:44:53;640.50;1177.60
54796;DHT22;40693;43.884;20.340;2023-12-28T10:47:23;640.20;1228.80
54796;DHT22;40693;43.884;20.340;2023-12-28T10:49:53;615.30;1228.80
54796;DHT22;40693;43.884;20.340;2023-12-28T10:52:21;615.30;1254.40
54796;DHT22;40693;43.884;20.340;2023-12-28T10:55:00;615.10;1280.00
54796;DHT22;40693;43.884;20.340;2023-12-28T11:00:45;614.90;1305.60
54796;DHT22;40693;43.884;20.340;2023-12-28T11:03:16;614.70;1254.40
54796;DHT22;40693;43.884;20.340;2023-12-28T11:05:45;614.50;1254.40
54796;DHT22;40693;43.884;20.340;2023-12-28T11:08:14;589.70;1280.00
54796;DHT22;40693;43.884;20.340;2023-12-28T11:10:40;589.70;1280.00
54796;DHT22;40693;43.884;20.340;2023-12-28T11:13:08;589.50;1305.60
54796;DHT22;40693;43.884;20.340;2023-12-28T11:15:36;589.30;1305.60
54796;DHT22;40693;43.884;20.340;2023-12-28T11:18:03;589.10;1331.20
54796;DHT22;40693;43.884;20.340;2023-12-28T11:20:30;588.90;1356.80
54796;DHT22;40693;43.884;20.340;2023-12-28T11:23:08;564.00;1356.80
54796;DHT22;40693;43.884;20.340;2023-12-28T11:25:36;564.00;1382.40
54796;DHT22;40693;43.884;20.340;2023-12-28T11:28:12;563.80;1382.40
54796;DHT22;40693;43.884;20.340;2023-12-28T11:30:38;563.80;1356.80
54796;DHT22;40693;43.884;20.340;2023-12-28T11:33:07;563.70;1356.80
54796;DHT22;40693;43.884;20.340;2023-12-28T11:35:38;563.50;1356.80
54796;DHT22;40693;43.884;20.340;2023-12-28T11:38:06;563.50;1356.80
54796;DHT22;40693;43.884;20.340;2023-12-28T11:40:45;563.20;1382.40
54796;DHT22;40693;43.884;20.340;2023-12-28T11:43:19;538.00;1382.40
54796;DHT22;40693;43.884;20.340;2023-12-28T11:45:54;538.00;1408.00
54796;DHT22;40693;43.884;20.340;2023-12-28T11:48:24;538.00;1382.40
54796;DHT22;40693;43.884;20.340;2023-12-28T11:50:55;538.00;1408.00
54796;DHT22;40693;43.884;20.340;2023-12-28T11:53:22;538.00;1408.00
54796;DHT22;40693;43.884;20.340;2023-12-28T11:55:49;537.80;1433.60
54796;DHT22;40693;43.884;20.340;2023-12-28T11:58:16;512.80;1433.60
54796;DHT22;40693;43.884;20.340;2023-12-28T12:00:43;512.70;1433.60
54796;DHT22;40693;43.884;20.340;2023-12-28T12:03:12;537.60;1459.20
54796;DHT22;40693;43.884;20.340;2023-12-28T12:05:38;537.80;1433.60
54796;DHT22;40693;43.884;20.340;2023-12-28T12:08:05;537.80;1433.60
54796;DHT22;40693;43.884;20.340;2023-12-28T12:10:31;537.80;1433.60
54796;DHT22;40693;43.884;20.340;2023-12-28T12:12:57;537.70;1433.60
54796;DHT22;40693;43.884;20.340;2023-12-28T12:15:23;537.70;1433.60
54796;DHT22;40693;43.884;20.340;2023-12-28T12:17:49;512.90;1433.60
54796;DHT22;40693;43.884;20.340;2023-12-28T12:20:15;537.70;1459.20
54796;DHT22;40693;43.884;20.340;2023-12-28T12:22:41;512.80;1408.00
54796;DHT22;40693;43.884;20.340;2023-12-28T12:25:08;512.80;1433.60
54796;DHT22;40693;43.884;20.340;2023-12-28T12:27:36;537.60;1459.20
54796;DHT22;40693;43.884;20.340;2023-12-28T12:30:02;537.60;1459.20
54796;DHT22;40693;43.884;20.340;2023-12-28T12:32:28;537.70;1459.20
54796;DHT22;40693;43.884;20.340;2023-12-28T12:34:55;537.90;1433.60
54796;DHT22;40693;43.884;20.340;2023-12-28T12:37:21;538.00;1433.60
54796;DHT22;40693;43.884;20.340;2023-12-28T12:39:48;538.00;1433.60
54796;DHT22;40693;43.884;20.340;2023-12-28T12:42:14;538.00;1408.00
54796;DHT22;40693;43.884;20.340;2023-12-28T12:44:39;537.80;1408.00
54796;DHT22;40693;43.884;20.340;2023-12-28T12:47:07;537.70;1408.00
54796;DHT22;40693;43.884;20.340;2023-12-28T12:49:32;537.70;1408.00
54796;DHT22;40693;43.884;20.340;2023-12-28T12:51:58;537.90;1433.60
54796;DHT22;40693;43.884;20.340;2023-12-28T12:54:24;537.90;1408.00
54796;DHT22;40693;43.884;20.340;2023-12-28T12:56:51;537.90;1408.00
54796;DHT22;40693;43.884;20.340;2023-12-28T12:59:18;538.00;1408.00
54796;DHT22;40693;43.884;20.340;2023-12-28T13:01:44;538.00;1536.00
54796;DHT22;40693;43.884;20.340;2023-12-28T13:04:11;538.00;1459.20
54796;DHT22;40693;43.884;20.340;2023-12-28T13:06:37;538.10;1433.60
54796;DHT22;40693;43.884;20.340;2023-12-28T13:09:04;538.30;1408.00
54796;DHT22;40693;43.884;20.340;2023-12-28T13:11:35;538.30;1459.20
54796;DHT22;40693;43.884;20.340;2023-12-28T13:14:01;538.30;1433.60
54796;DHT22;40693;43.884;20.340;2023-12-28T13:16:27;538.30;1484.80
54796;DHT22;40693;43.884;20.340;2023-12-28T13:18:53;538.30;1459.20
54796;DHT22;40693;43.884;20.340;2023-12-28T13:21:19;538.30;1459.20
54796;DHT22;40693;43.884;20.340;2023-12-28T13:23:45;538.40;1536.00
54796;DHT22;40693;43.884;20.340;2023-12-28T13:26:10;538.30;1433.60
54796;DHT22;40693;43.884;20.340;2023-12-28T13:28:36;563.20;1484.80
54796;DHT22;40693;43.884;20.340;2023-12-28T13:31:02;538.20;1408.00
54796;DHT22;40693;43.884;20.340;2023-12-28T13:33:28;538.00;1408.00
54796;DHT22;40693;43.884;20.340;2023-12-28T13:35:54;538.00;1484.80
54796;DHT22;40693;43.884;20.340;2023-12-28T13:38:20;538.00;1433.60
54796;DHT22;40693;43.884;20.340;2023-12-28T13:40:46;538.00;1433.60
54796;DHT22;40693;43.884;20.340;2023-12-28T13:43:12;538.00;1459.20
54796;DHT22;40693;43.884;20.340;2023-12-28T13:45:38;537.90;1484.80
54796;DHT22;40693;43.884;20.340;2023-12-28T13:48:04;537.70;1484.80
54796;DHT22;40693;43.884;20.340;2023-12-28T13:50:30;537.70;1536.00
54796;DHT22;40693;43.884;20.340;2023-12-28T13:52:57;537.60;1484.80
54796;DHT22;40693;43.884;20.340;2023-12-28T13:55:23;512.80;1433.60
54796;DHT22;40693;43.884;20.340;2023-12-28T13:57:49;512.40;1484.80
54796;DHT22;40693;43.884;20.340;2023-12-28T14:00:15;512.40;1484.80
54796;DHT22;40693;43.884;20.340;2023-12-28T14:02:41;512.40;1484.80
54796;DHT22;40693;43.884;20.340;2023-12-28T14:05:07;512.40;1536.00
54796;DHT22;40693;43.884;20.340;2023-12-28T14:07:33;512.20;1459.20
54796;DHT22;40693;43.884;20.340;2023-12-28T14:09:58;512.10;1510.40
54796;DHT22;40693;43.884;20.340;2023-12-28T14:12:24;487.30;1561.60
54796;DHT22;40693;43.884;20.340;2023-12-28T14:14:50;487.20;1536.00
54796;DHT22;40693;43.884;20.340;2023-12-28T14:17:16;487.20;1587.20
54796;DHT22;40693;43.884;20.340;2023-12-28T14:19:45;487.20;1561.60
54796;DHT22;40693;43.884;20.340;2023-12-28T14:22:12;487.20;1561.60
54796;DHT22;40693;43.884;20.340;2023-12-28T14:24:38;487.00;1536.00
54796;DHT22;40693;43.884;20.340;2023-12-28T14:27:04;486.90;1587.20
54796;DHT22;40693;43.884;20.340;2023-12-28T14:29:30;486.80;1612.80
54796;DHT22;40693;43.884;20.340;2023-12-28T14:31:56;486.70;1612.80
54796;DHT22;40693;43.884;20.340;2023-12-28T14:34:23;486.60;1664.00
54796;DHT22;40693;43.884;20.340;2023-12-28T14:36:50;486.50;1689.60